Ro Fjord — LFEI — position and weather

sailwx.info

Track history (hours):
 
Tides and Currents Weather Stations Pressure Air Temp Water Temp Dewpoint Dewpoint Depression Visibility Wind Speed Wind Dir Waves Ship Positions

Ro Fjord

Last reported at 2017-Sep-24 07:00 UTC. Time now 2017-Sep-24 07:08 UTC.
Position N 61°04' E 005°20'.

Length 72 m; draft 6.4 m.

Type: Ship. MMSI: 257430000.

Date/timePositionNaut miles runAvg speedWind from/ knotsBaromVisibWave heightAir tempDewpointWater temp
2017-Sep-24 07:00N 61°04' E 005°20'510.5
2017-Sep-24 06:30N 61°06' E 005°10'510.7
2017-Sep-24 06:00N 61°04' E 004°60'510.4
2017-Sep-24 05:30N 61°01' E 004°51'5 9.5
2017-Sep-24 05:00N 60°56' E 004°46'3 6.6
2017-Sep-24 04:30N 60°54' E 004°50'0 0.4
2017-Sep-24 04:00N 60°54' E 004°50'0 0.0
2017-Sep-24 03:30N 60°54' E 004°50'0 0.3
2017-Sep-24 03:00N 60°54' E 004°50'2 4.5
2017-Sep-24 02:30N 60°55' E 004°46'510.1
2017-Sep-24 01:59N 60°60' E 004°45'510.0
2017-Sep-24 01:30N 61°05' E 004°43'510.0
2017-Sep-24 01:00N 61°10' E 004°45'5 9.8
2017-Sep-24 00:30N 61°14' E 004°43'510.2
2017-Sep-24 00:00N 61°19' E 004°48'510.1
2017-Sep-23 23:30N 61°24' E 004°50'5 9.9
2017-Sep-23 23:00N 61°28' E 004°56'5 9.7
2017-Sep-23 22:29N 61°32' E 005°00'2 5.0
2017-Sep-23 22:00N 61°34' E 005°03'0 0.0
2017-Sep-23 21:30N 61°34' E 005°03'0 0.0
2017-Sep-23 21:00N 61°34' E 005°03'0 0.0
2017-Sep-23 20:29N 61°34' E 005°03'0 0.0
2017-Sep-23 19:59N 61°34' E 005°03'21 0.5
2017-Sep-22 02:00N 61°54' E 005°21'0 0.0
2017-Sep-22 01:30N 61°54' E 005°21'0 0.0
2017-Sep-22 01:00N 61°54' E 005°21'0 0.0
2017-Sep-22 00:30N 61°54' E 005°21'0 0.1
2017-Sep-22 00:00N 61°54' E 005°21'0 0.0
2017-Sep-21 23:30N 61°54' E 005°21'0 0.0
2017-Sep-21 23:00N 61°54' E 005°21'0 0.0
2017-Sep-21 22:29N 61°54' E 005°21'0 0.0
2017-Sep-21 22:00N 61°54' E 005°21'3 5.7
2017-Sep-21 21:30N 61°54' E 005°15'3 6.4
2017-Sep-21 21:00N 61°54' E 005°08'2 3.9
2017-Sep-21 20:29N 61°56' E 005°08'2 4.1
2017-Sep-21 20:00N 61°58' E 005°09'4 8.3
2017-Sep-21 19:30N 62°02' E 005°09'510.2
2017-Sep-21 19:00N 62°07' E 005°05'5 9.1
2017-Sep-21 18:30N 62°12' E 005°05'5 9.9
2017-Sep-21 18:00N 62°15' E 005°14'611.1
2017-Sep-21 17:30N 62°17' E 005°24'610.9
2017-Sep-21 17:00N 62°18' E 005°36'2 3.7
2017-Sep-21 16:30N 62°19' E 005°39'0 0.0
2017-Sep-21 16:00N 62°19' E 005°39'1 2.1
2017-Sep-21 15:30N 62°19' E 005°42'4 8.3
2017-Sep-21 15:00N 62°22' E 005°48'5 9.2
2017-Sep-21 14:30N 62°26' E 005°54'5 9.9
2017-Sep-21 14:00N 62°28' E 006°03'510.0
2017-Sep-21 13:30N 62°31' E 006°12'5 9.6
2017-Sep-21 13:00N 62°36' E 006°16'510.0
2017-Sep-21 12:30N 62°39' E 006°24'510.0
2017-Sep-21 12:00N 62°42' E 006°32'5 9.9
2017-Sep-21 11:30N 62°45' E 006°42'5 9.8
2017-Sep-21 11:00N 62°46' E 006°52'2 3.6
2017-Sep-21 10:30N 62°47' E 006°55'0 0.0
2017-Sep-21 10:00N 62°47' E 006°55'0 0.0
2017-Sep-21 09:30N 62°47' E 006°55'0 0.0
2017-Sep-21 09:00N 62°47' E 006°55'0 0.0
2017-Sep-21 08:30N 62°47' E 006°55'0 0.0
2017-Sep-21 08:00N 62°47' E 006°55'0 0.2
2017-Sep-21 07:30N 62°47' E 006°55'0 0.0
2017-Sep-21 06:59N 62°47' E 006°55'0 0.0
2017-Sep-21 06:30N 62°47' E 006°55'0 0.0
2017-Sep-21 06:00N 62°47' E 006°55'0 0.0
2017-Sep-21 05:30N 62°47' E 006°55'0 0.0
2017-Sep-21 05:00N 62°47' E 006°55'0 0.0
2017-Sep-21 04:30N 62°47' E 006°55'0 0.0
2017-Sep-21 04:00N 62°47' E 006°55'0 0.0
2017-Sep-21 03:30N 62°47' E 006°55'0 0.0
2017-Sep-21 03:00N 62°47' E 006°55'1 1.4
2017-Sep-21 02:30N 62°47' E 006°57'4 8.4
2017-Sep-21 02:00N 62°51' E 006°58'4 7.9
2017-Sep-21 01:30N 62°52' E 006°49'2 3.8
2017-Sep-21 01:00N 62°51' E 006°47'0 0.0
2017-Sep-21 00:30N 62°51' E 006°47'0 0.3
2017-Sep-21 00:00N 62°51' E 006°47'4 7.7
2017-Sep-20 23:30N 62°48' E 006°40'0 0.9
2017-Sep-20 23:00N 62°48' E 006°40'0 0.0
2017-Sep-20 22:30N 62°48' E 006°40'0 0.0
2017-Sep-20 22:00N 62°48' E 006°40'0 0.0
2017-Sep-20 21:30N 62°48' E 006°40'0 0.0
2017-Sep-20 21:00N 62°48' E 006°40'0 0.0
2017-Sep-20 20:30N 62°48' E 006°40'1 1.1
2017-Sep-20 20:00N 62°47' E 006°41'511.0
2017-Sep-20 19:30N 62°43' E 006°34'612.0
2017-Sep-20 19:00N 62°39' E 006°24'612.0
2017-Sep-20 18:30N 62°35' E 006°14'611.2
2017-Sep-20 18:00N 62°30' E 006°09'611.2
2017-Sep-20 17:30N 62°27' E 005°59'611.3
2017-Sep-20 17:00N 62°24' E 005°49'510.3
2017-Sep-20 16:29N 62°19' E 005°43'2 3.6
2017-Sep-20 16:00N 62°19' E 005°39'0 0.0
2017-Sep-20 15:30N 62°19' E 005°39'2 4.5
2017-Sep-20 15:00N 62°19' E 005°44'9 9.2
2017-Sep-20 14:00N 62°26' E 005°57'510.1
2017-Sep-20 13:30N 62°29' E 006°06'5 9.7
2017-Sep-20 13:00N 62°33' E 006°13'5 9.6
2017-Sep-20 12:30N 62°37' E 006°18'510.2
2017-Sep-20 12:00N 62°40' E 006°27'5 9.9
2017-Sep-20 11:30N 62°43' E 006°35'5 9.3
2017-Sep-20 11:00N 62°45' E 006°44'510.2
2017-Sep-20 10:31N 62°46' E 006°55'1 1.2
2017-Sep-20 10:00N 62°47' E 006°55'0 0.0
2017-Sep-20 09:30N 62°47' E 006°55'0 0.0
2017-Sep-20 09:00N 62°47' E 006°55'0 0.0
2017-Sep-20 08:30N 62°47' E 006°55'0 0.0
2017-Sep-20 08:00N 62°47' E 006°55'0 0.0
2017-Sep-20 07:30N 62°47' E 006°55'0 0.0
2017-Sep-20 07:00N 62°47' E 006°55'0 0.2
2017-Sep-20 06:30N 62°47' E 006°55'0 0.0
2017-Sep-20 06:00N 62°47' E 006°55'0 0.0
2017-Sep-20 05:30N 62°47' E 006°55'0 0.0
2017-Sep-20 05:00N 62°47' E 006°55'0 0.0
2017-Sep-20 04:30N 62°47' E 006°55'0 0.0
2017-Sep-20 04:00N 62°47' E 006°55'2 3.1
2017-Sep-20 03:30N 62°46' E 006°53'510.9
2017-Sep-20 03:00N 62°45' E 006°41'510.8
2017-Sep-20 02:30N 62°42' E 006°31'510.7
2017-Sep-20 02:00N 62°38' E 006°22'510.2
2017-Sep-20 01:30N 62°35' E 006°14'3 6.8
2017-Sep-20 01:00N 62°32' E 006°10'510.1
2017-Sep-20 00:29N 62°28' E 006°03'510.9
2017-Sep-20 00:00N 62°25' E 005°53'510.9
2017-Sep-19 23:30N 62°21' E 005°46'3 6.8
2017-Sep-19 23:00N 62°19' E 005°39'0 0.0
2017-Sep-19 22:30N 62°19' E 005°39'0 0.1
2017-Sep-19 22:00N 62°19' E 005°39'3 6.7
2017-Sep-19 21:29N 62°18' E 005°33'5 9.6
2017-Sep-19 21:00N 62°17' E 005°23'5 9.7
2017-Sep-19 20:30N 62°15' E 005°14'5 9.6
2017-Sep-19 20:00N 62°12' E 005°05'4 8.9
2017-Sep-19 19:30N 62°07' E 005°05'5 9.8
2017-Sep-19 19:00N 62°03' E 005°08'5 9.7
2017-Sep-19 18:30N 61°58' E 005°09'4 8.8
2017-Sep-19 18:00N 61°53' E 005°10'4 8.8
2017-Sep-19 17:30N 61°50' E 005°16'510.3
2017-Sep-19 16:59N 61°47' E 005°06'2 4.1
2017-Sep-19 16:30N 61°45' E 005°04'0 0.0
2017-Sep-19 16:00N 61°45' E 005°04'0 0.0
2017-Sep-19 15:30N 61°45' E 005°04'0 0.0
2017-Sep-19 15:00N 61°45' E 005°04'0 0.0
2017-Sep-19 14:30N 61°45' E 005°04'0 0.0
2017-Sep-19 14:00N 61°45' E 005°04'0 0.0
2017-Sep-19 13:30N 61°45' E 005°04'0 0.3
2017-Sep-19 13:00N 61°46' E 005°05'0 0.3
2017-Sep-19 12:30N 61°46' E 005°05'0 0.3
2017-Sep-19 12:00N 61°46' E 005°05'0 0.6
2017-Sep-19 11:30N 61°45' E 005°04'0 0.0
2017-Sep-19 11:00N 61°45' E 005°04'0 0.0
2017-Sep-19 10:30N 61°45' E 005°04'0 0.0
2017-Sep-19 10:00N 61°45' E 005°04'0 0.0
2017-Sep-19 09:30N 61°45' E 005°04'0 0.0
2017-Sep-19 09:00N 61°45' E 005°04'0 0.0
2017-Sep-19 08:30N 61°45' E 005°04'0 0.0
2017-Sep-19 08:00N 61°45' E 005°04'1 1.1
2017-Sep-19 07:29N 61°46' E 005°05'0 0.3
2017-Sep-19 07:00N 61°46' E 005°05'0 0.2
2017-Sep-19 06:30N 61°46' E 005°05'3 6.9
2017-Sep-19 06:00N 61°49' E 005°09'5 8.9
2017-Sep-19 05:30N 61°52' E 005°15'5 9.7
2017-Sep-19 05:00N 61°55' E 005°07'1 2.4
2017-Sep-19 04:30N 61°56' E 005°07'0 0.0
2017-Sep-19 04:00N 61°56' E 005°07'0 0.0
2017-Sep-19 03:30N 61°56' E 005°07'0 0.0
2017-Sep-19 03:00N 61°56' E 005°07'0 0.0
2017-Sep-19 02:30N 61°56' E 005°07'0 0.0
2017-Sep-19 02:00N 61°56' E 005°07'0 0.0
2017-Sep-19 01:30N 61°56' E 005°07'0 0.0
2017-Sep-19 01:00N 61°56' E 005°07'0 0.0
2017-Sep-19 00:30N 61°56' E 005°07'0 0.0
2017-Sep-19 00:00N 61°56' E 005°07'0 0.0
2017-Sep-18 23:30N 61°56' E 005°07'0 0.0
2017-Sep-18 23:00N 61°56' E 005°07'0 0.0
2017-Sep-18 22:30N 61°56' E 005°07'0 0.0
2017-Sep-18 21:59N 61°56' E 005°07'0 0.0
2017-Sep-18 21:30N 61°56' E 005°07'0 0.0
2017-Sep-18 20:59N 61°56' E 005°07'0 0.0
2017-Sep-18 20:30N 61°56' E 005°07'0 0.0
2017-Sep-18 20:00N 61°56' E 005°07'0 0.0
2017-Sep-18 19:30N 61°56' E 005°07'3 6.4
2017-Sep-18 19:00N 61°59' E 005°09'510.7
2017-Sep-18 18:30N 62°04' E 005°07'611.2
2017-Sep-18 18:00N 62°09' E 005°04'510.3
2017-Sep-18 17:30N 62°14' E 005°11'610.9
2017-Sep-18 16:59N 62°17' E 005°21'510.8
2017-Sep-18 16:30N 62°18' E 005°32'4 7.6
2017-Sep-18 16:00N 62°19' E 005°39'0 0.1
2017-Sep-18 15:30N 62°19' E 005°39'0 0.0
2017-Sep-18 15:00N 62°19' E 005°39'2 4.9
2017-Sep-18 14:30N 62°19' E 005°45'5 9.1
2017-Sep-18 14:00N 62°24' E 005°49'5 9.5
2017-Sep-18 13:30N 62°27' E 005°57'5 9.7
2017-Sep-18 13:00N 62°29' E 006°06'5 9.5
2017-Sep-18 12:30N 62°32' E 006°13'5 9.1
2017-Sep-18 12:00N 62°36' E 006°17'5 9.9
2017-Sep-18 11:29N 62°40' E 006°26'5 9.6
2017-Sep-18 11:00N 62°43' E 006°34'5 9.7
2017-Sep-18 10:30N 62°45' E 006°43'510.2
2017-Sep-18 10:00N 62°46' E 006°54'1 2.2
2017-Sep-18 09:30N 62°47' E 006°55'0 0.0
2017-Sep-18 09:00N 62°47' E 006°55'0 0.0
2017-Sep-18 08:29N 62°47' E 006°55'0 0.0
2017-Sep-18 08:00N 62°47' E 006°55'3 5.8
2017-Sep-18 07:30N 62°46' E 006°50'510.8
2017-Sep-18 07:00N 62°44' E 006°39'511.0
2017-Sep-18 06:30N 62°41' E 006°29'611.2
2017-Sep-18 06:00N 62°37' E 006°20'611.2
2017-Sep-18 05:29N 62°33' E 006°11'510.3
2017-Sep-18 05:00N 62°29' E 006°06'510.8
2017-Sep-18 04:29N 62°26' E 005°56'510.3
2017-Sep-18 04:00N 62°23' E 005°48'5 9.0
2017-Sep-18 03:30N 62°19' E 005°41'0 0.8
2017-Sep-18 03:00N 62°19' E 005°40'0 0.0
2017-Sep-18 02:30N 62°19' E 005°40'0 0.0
2017-Sep-18 02:00N 62°19' E 005°40'0 0.0
2017-Sep-18 01:30N 62°19' E 005°40'0 0.0
2017-Sep-18 01:00N 62°19' E 005°40'0 0.4
2017-Sep-18 00:30N 62°19' E 005°40'0 0.6
2017-Sep-18 00:00N 62°19' E 005°39'0 0.0
2017-Sep-17 23:30N 62°19' E 005°39'0 0.0
2017-Sep-17 23:00N 62°19' E 005°39'3 5.2
2017-Sep-17 22:30N 62°18' E 005°34'5 9.0
2017-Sep-17 22:00N 62°17' E 005°25'4 8.8
2017-Sep-17 21:30N 62°15' E 005°16'4 9.0
2017-Sep-17 21:00N 62°13' E 005°08'4 8.2
2017-Sep-17 20:30N 62°09' E 005°04'5 9.6
2017-Sep-17 20:00N 62°05' E 005°07'5 9.7
2017-Sep-17 19:30N 61°60' E 005°10'5 9.4
2017-Sep-17 19:00N 61°55' E 005°07'4 9.0
2017-Sep-17 18:30N 61°52' E 005°14'3 6.4
2017-Sep-17 18:00N 61°49' E 005°12'5 9.5
2017-Sep-17 17:29N 61°46' E 005°03'5 9.4
2017-Sep-17 17:00N 61°43' E 004°58'510.1
2017-Sep-17 16:30N 61°38' E 004°59'4 8.8
2017-Sep-17 16:00N 61°33' E 005°00'5 9.7
2017-Sep-17 15:30N 61°29' E 004°58'510.1
2017-Sep-17 15:00N 61°25' E 004°51'5 9.8
2017-Sep-17 14:30N 61°20' E 004°50'5 9.8
2017-Sep-17 14:00N 61°16' E 004°55'5 9.7
2017-Sep-17 13:30N 61°12' E 005°01'4 8.7
2017-Sep-17 13:00N 61°09' E 005°08'0 0.0
2017-Sep-17 12:30N 61°09' E 005°08'0 0.0
2017-Sep-17 12:00N 61°09' E 005°08'0 0.0
2017-Sep-17 11:30N 61°09' E 005°08'0 0.0
2017-Sep-17 11:00N 61°09' E 005°08'0 0.0
2017-Sep-17 10:29N 61°09' E 005°08'1 2.0
2017-Sep-17 09:59N 61°08' E 005°07'3 5.6
2017-Sep-17 09:30N 61°06' E 005°05'4 7.4
2017-Sep-17 08:59N 61°03' E 004°59'3 6.5
2017-Sep-17 08:30N 61°02' E 004°54'3 6.6
2017-Sep-17 08:00N 60°60' E 004°48'4 8.0
2017-Sep-17 07:30N 60°56' E 004°46'3 6.1
2017-Sep-17 07:00N 60°54' E 004°50'0 0.3
2017-Sep-17 06:30N 60°54' E 004°50'0 0.3
2017-Sep-17 06:00N 60°54' E 004°50'3 5.6
2017-Sep-17 05:30N 60°55' E 004°46'510.1
2017-Sep-17 05:00N 61°00' E 004°45'5 9.4
2017-Sep-17 04:30N 61°05' E 004°43'5 9.5
2017-Sep-17 03:59N 61°10' E 004°44'5 9.4
2017-Sep-17 03:30N 61°14' E 004°43'5 9.7
2017-Sep-17 03:00N 61°19' E 004°48'5 9.5
2017-Sep-17 02:30N 61°23' E 004°49'510.0
2017-Sep-17 02:00N 61°27' E 004°55'5 9.9
2017-Sep-17 01:30N 61°32' E 005°00'3 5.8
2017-Sep-17 01:00N 61°34' E 005°03'0 0.0
2017-Sep-17 00:30N 61°34' E 005°03'0 0.0
2017-Sep-17 00:00N 61°34' E 005°03'0 0.0
2017-Sep-16 23:30N 61°34' E 005°03'2 4.7
2017-Sep-16 22:59N 61°34' E 004°58'1 1.2
2017-Sep-16 22:30N 61°34' E 004°57'1 1.9
2017-Sep-16 22:00N 61°35' E 004°57'2 4.3
2017-Sep-16 21:30N 61°36' E 005°01'0 1.0
2017-Sep-16 21:00N 61°36' E 005°02'0 0.0
2017-Sep-16 20:30N 61°36' E 005°02'2 3.2
2017-Sep-16 20:00N 61°37' E 004°59'5 9.9
2017-Sep-16 19:30N 61°42' E 004°57'510.0
2017-Sep-16 19:00N 61°46' E 005°02'510.6
2017-Sep-16 18:30N 61°49' E 005°11'3 6.8
2017-Sep-16 18:00N 61°51' E 005°18'0 0.0
2017-Sep-16 17:29N 61°51' E 005°18'0 0.0
2017-Sep-16 17:00N 61°51' E 005°18'1 2.1
2017-Sep-16 16:30N 61°52' E 005°16'510.3
2017-Sep-16 16:00N 61°55' E 005°07'611.3
2017-Sep-16 15:30N 62°00' E 005°09'611.4
2017-Sep-16 15:00N 62°06' E 005°06'511.1
2017-Sep-16 14:30N 62°11' E 005°04'611.1
2017-Sep-16 14:00N 62°15' E 005°13'611.3
2017-Sep-16 13:30N 62°17' E 005°24'611.3
2017-Sep-16 13:00N 62°18' E 005°36'2 3.9
2017-Sep-16 12:30N 62°19' E 005°39'0 0.0
2017-Sep-16 12:00N 62°19' E 005°39'0 0.0
2017-Sep-16 11:30N 62°19' E 005°39'0 0.0
2017-Sep-16 11:00N 62°19' E 005°39'0 0.0
2017-Sep-16 10:30N 62°19' E 005°39'0 0.0
2017-Sep-16 10:00N 62°19' E 005°39'0 0.0
2017-Sep-16 09:30N 62°19' E 005°39'0 0.0
2017-Sep-16 08:59N 62°19' E 005°39'0 0.0
2017-Sep-16 08:30N 62°19' E 005°39'0 0.0
2017-Sep-16 08:00N 62°19' E 005°39'0 0.0
2017-Sep-16 07:29N 62°19' E 005°39'0 0.0
2017-Sep-16 07:00N 62°19' E 005°39'0 0.0
2017-Sep-16 06:30N 62°19' E 005°39'0 0.0
2017-Sep-16 06:00N 62°19' E 005°39'0 0.0
2017-Sep-16 05:30N 62°19' E 005°39'0 0.0
2017-Sep-16 05:00N 62°19' E 005°39'0 0.0
2017-Sep-16 04:30N 62°19' E 005°39'0 0.0
2017-Sep-16 04:00N 62°19' E 005°39'0 0.0
2017-Sep-16 03:30N 62°19' E 005°39'0 0.0
2017-Sep-16 03:00N 62°19' E 005°39'0 0.0
2017-Sep-16 02:30N 62°19' E 005°39'0 0.0
2017-Sep-16 02:00N 62°19' E 005°39'0 0.0
2017-Sep-16 01:30N 62°19' E 005°39'0 0.0
2017-Sep-16 01:00N 62°19' E 005°39'0 0.0
2017-Sep-16 00:30N 62°19' E 005°39'0 0.0
2017-Sep-16 00:00N 62°19' E 005°39'0 0.0
2017-Sep-15 23:30N 62°19' E 005°39'0 0.0
2017-Sep-15 23:00N 62°19' E 005°39'0 0.0
2017-Sep-15 22:30N 62°19' E 005°39'2 3.1
2017-Sep-15 22:00N 62°18' E 005°36'5 9.0
2017-Sep-15 21:30N 62°15' E 005°31'5 9.5
2017-Sep-15 21:00N 62°11' E 005°36'510.1
2017-Sep-15 20:30N 62°12' E 005°47'1 1.0
2017-Sep-15 20:00N 62°13' E 005°47'0 0.0
2017-Sep-15 19:30N 62°13' E 005°47'0 0.0
2017-Sep-15 19:00N 62°13' E 005°47'0 0.0
2017-Sep-15 18:29N 62°13' E 005°47'2 4.4
2017-Sep-15 18:00N 62°13' E 005°52'3 6.7
2017-Sep-15 17:30N 62°15' E 005°57'3 6.9
2017-Sep-15 17:00N 62°18' E 006°02'3 7.0
2017-Sep-15 16:30N 62°21' E 006°07'4 7.8
2017-Sep-15 16:00N 62°24' E 006°04'4 7.3
2017-Sep-15 15:30N 62°28' E 006°04'1 3.0
2017-Sep-15 14:59N 62°28' E 006°08'4 7.9
2017-Sep-15 14:29N 62°31' E 006°14'4 9.0
2017-Sep-15 14:00N 62°31' E 006°23'1 1.6
2017-Sep-15 13:30N 62°32' E 006°24'0 0.0
2017-Sep-15 13:00N 62°32' E 006°24'0 0.0
2017-Sep-15 12:30N 62°32' E 006°24'2 4.5
2017-Sep-15 12:00N 62°31' E 006°20'0 0.2
2017-Sep-15 11:30N 62°31' E 006°20'1 1.0
2017-Sep-15 11:00N 62°31' E 006°21'0 0.8
2017-Sep-15 10:30N 62°31' E 006°22'3 5.3
2017-Sep-15 10:00N 62°31' E 006°16'2 4.6
2017-Sep-15 09:30N 62°31' E 006°11'3 5.2
2017-Sep-15 09:00N 62°29' E 006°07'3 6.7
2017-Sep-15 08:30N 62°27' E 006°01'4 7.3
2017-Sep-15 08:00N 62°26' E 005°53'3 6.2
2017-Sep-15 07:30N 62°25' E 005°47'3 6.9
2017-Sep-15 07:00N 62°22' E 005°45'3 5.9
2017-Sep-15 06:30N 62°19' E 005°42'1 2.7
2017-Sep-15 06:00N 62°19' E 005°39'0 0.0
2017-Sep-15 05:30N 62°19' E 005°39'0 0.0
2017-Sep-15 05:00N 62°19' E 005°39'0 0.0
2017-Sep-15 04:30N 62°19' E 005°39'0 0.0
2017-Sep-15 04:00N 62°19' E 005°39'0 0.0
2017-Sep-15 03:30N 62°19' E 005°39'0 0.0
2017-Sep-15 03:00N 62°19' E 005°39'0 0.0
2017-Sep-15 02:30N 62°19' E 005°39'0 0.0
2017-Sep-15 02:00N 62°19' E 005°39'0 0.0
2017-Sep-15 01:30N 62°19' E 005°39'0 0.0
2017-Sep-15 01:00N 62°19' E 005°39'0 0.0
2017-Sep-15 00:30N 62°19' E 005°39'0 0.0
2017-Sep-15 00:00N 62°19' E 005°39'0 0.0
2017-Sep-14 23:30N 62°19' E 005°39'4 6.9
2017-Sep-14 22:59N 62°18' E 005°33'5 9.8
2017-Sep-14 22:30N 62°13' E 005°32'5 9.1
2017-Sep-14 22:00N 62°11' E 005°41'3 6.5
2017-Sep-14 21:30N 62°13' E 005°47'0 0.0
2017-Sep-14 20:59N 62°13' E 005°47'0 0.0
2017-Sep-14 20:30N 62°13' E 005°47'0 0.0
2017-Sep-14 20:00N 62°13' E 005°47'0 0.0
2017-Sep-14 19:29N 62°13' E 005°47'0 0.0
2017-Sep-14 19:00N 62°13' E 005°47'2 3.6
2017-Sep-14 18:30N 62°12' E 005°44'510.4
2017-Sep-14 17:59N 62°12' E 005°33'510.6
2017-Sep-14 17:29N 62°17' E 005°32'5 9.4
2017-Sep-14 17:00N 62°19' E 005°40'0 0.0
2017-Sep-14 16:30N 62°19' E 005°40'0 0.0
2017-Sep-14 16:00N 62°19' E 005°40'0 0.0
2017-Sep-14 15:30N 62°19' E 005°40'0 0.0
2017-Sep-14 15:00N 62°19' E 005°40'0 0.0
2017-Sep-14 14:30N 62°19' E 005°40'0 1.0
2017-Sep-14 14:00N 62°19' E 005°39'0 0.0
2017-Sep-14 13:30N 62°19' E 005°39'2 3.9
2017-Sep-14 13:00N 62°18' E 005°36'5 9.8
2017-Sep-14 12:30N 62°17' E 005°25'5 9.8
2017-Sep-14 12:00N 62°15' E 005°16'5 9.4
2017-Sep-14 11:30N 62°13' E 005°08'4 8.0
2017-Sep-14 11:00N 62°09' E 005°04'5 9.5
2017-Sep-14 10:30N 62°04' E 005°07'5 9.8
2017-Sep-14 10:00N 61°60' E 005°10'5 9.3
2017-Sep-14 09:30N 61°55' E 005°07'5 9.1
2017-Sep-14 09:00N 61°52' E 005°14'4 7.1
2017-Sep-14 08:30N 61°49' E 005°10'510.3
2017-Sep-14 08:00N 61°46' E 005°02'5 9.5
2017-Sep-14 07:30N 61°42' E 004°58'  
Track history (hours):
 
Tides and Currents Weather Stations Pressure Air Temp Water Temp Dewpoint Dewpoint Depression Visibility Wind Speed Wind Dir Waves Ship Positions

Ro Fjord

Last reported at 2017-Sep-24 07:00 UTC. Time now 2017-Sep-24 07:08 UTC.
Position N 61°04' E 005°20'.

Length 72 m; draft 6.4 m.

Type: Ship. MMSI: 257430000.

Date/timePositionNaut miles runAvg speedWind from/ knotsBaromVisibWave heightAir tempDewpointWater temp
2017-Sep-24 07:00N 61°04' E 005°20'510.5
2017-Sep-24 06:30N 61°06' E 005°10'510.7
2017-Sep-24 06:00N 61°04' E 004°60'510.4
2017-Sep-24 05:30N 61°01' E 004°51'5 9.5
2017-Sep-24 05:00N 60°56' E 004°46'3 6.6
2017-Sep-24 04:30N 60°54' E 004°50'0 0.4
2017-Sep-24 04:00N 60°54' E 004°50'0 0.0
2017-Sep-24 03:30N 60°54' E 004°50'0 0.3
2017-Sep-24 03:00N 60°54' E 004°50'2 4.5
2017-Sep-24 02:30N 60°55' E 004°46'510.1
2017-Sep-24 01:59N 60°60' E 004°45'510.0
2017-Sep-24 01:30N 61°05' E 004°43'510.0
2017-Sep-24 01:00N 61°10' E 004°45'5 9.8
2017-Sep-24 00:30N 61°14' E 004°43'510.2
2017-Sep-24 00:00N 61°19' E 004°48'510.1
2017-Sep-23 23:30N 61°24' E 004°50'5 9.9
2017-Sep-23 23:00N 61°28' E 004°56'5 9.7
2017-Sep-23 22:29N 61°32' E 005°00'2 5.0
2017-Sep-23 22:00N 61°34' E 005°03'0 0.0
2017-Sep-23 21:30N 61°34' E 005°03'0 0.0
2017-Sep-23 21:00N 61°34' E 005°03'0 0.0
2017-Sep-23 20:29N 61°34' E 005°03'0 0.0
2017-Sep-23 19:59N 61°34' E 005°03'21 0.5
2017-Sep-22 02:00N 61°54' E 005°21'0 0.0
2017-Sep-22 01:30N 61°54' E 005°21'0 0.0
2017-Sep-22 01:00N 61°54' E 005°21'0 0.0
2017-Sep-22 00:30N 61°54' E 005°21'0 0.1
2017-Sep-22 00:00N 61°54' E 005°21'0 0.0
2017-Sep-21 23:30N 61°54' E 005°21'0 0.0
2017-Sep-21 23:00N 61°54' E 005°21'0 0.0
2017-Sep-21 22:29N 61°54' E 005°21'0 0.0
2017-Sep-21 22:00N 61°54' E 005°21'3 5.7
2017-Sep-21 21:30N 61°54' E 005°15'3 6.4
2017-Sep-21 21:00N 61°54' E 005°08'2 3.9
2017-Sep-21 20:29N 61°56' E 005°08'2 4.1
2017-Sep-21 20:00N 61°58' E 005°09'4 8.3
2017-Sep-21 19:30N 62°02' E 005°09'510.2
2017-Sep-21 19:00N 62°07' E 005°05'5 9.1
2017-Sep-21 18:30N 62°12' E 005°05'5 9.9
2017-Sep-21 18:00N 62°15' E 005°14'611.1
2017-Sep-21 17:30N 62°17' E 005°24'610.9
2017-Sep-21 17:00N 62°18' E 005°36'2 3.7
2017-Sep-21 16:30N 62°19' E 005°39'0 0.0
2017-Sep-21 16:00N 62°19' E 005°39'1 2.1
2017-Sep-21 15:30N 62°19' E 005°42'4 8.3
2017-Sep-21 15:00N 62°22' E 005°48'5 9.2
2017-Sep-21 14:30N 62°26' E 005°54'5 9.9
2017-Sep-21 14:00N 62°28' E 006°03'510.0
2017-Sep-21 13:30N 62°31' E 006°12'5 9.6
2017-Sep-21 13:00N 62°36' E 006°16'510.0
2017-Sep-21 12:30N 62°39' E 006°24'510.0
2017-Sep-21 12:00N 62°42' E 006°32'5 9.9
2017-Sep-21 11:30N 62°45' E 006°42'5 9.8
2017-Sep-21 11:00N 62°46' E 006°52'2 3.6
2017-Sep-21 10:30N 62°47' E 006°55'0 0.0
2017-Sep-21 10:00N 62°47' E 006°55'0 0.0
2017-Sep-21 09:30N 62°47' E 006°55'0 0.0
2017-Sep-21 09:00N 62°47' E 006°55'0 0.0
2017-Sep-21 08:30N 62°47' E 006°55'0 0.0
2017-Sep-21 08:00N 62°47' E 006°55'0 0.2
2017-Sep-21 07:30N 62°47' E 006°55'0 0.0
2017-Sep-21 06:59N 62°47' E 006°55'0 0.0
2017-Sep-21 06:30N 62°47' E 006°55'0 0.0
2017-Sep-21 06:00N 62°47' E 006°55'0 0.0
2017-Sep-21 05:30N 62°47' E 006°55'0 0.0
2017-Sep-21 05:00N 62°47' E 006°55'0 0.0
2017-Sep-21 04:30N 62°47' E 006°55'0 0.0
2017-Sep-21 04:00N 62°47' E 006°55'0 0.0
2017-Sep-21 03:30N 62°47' E 006°55'0 0.0
2017-Sep-21 03:00N 62°47' E 006°55'1 1.4
2017-Sep-21 02:30N 62°47' E 006°57'4 8.4
2017-Sep-21 02:00N 62°51' E 006°58'4 7.9
2017-Sep-21 01:30N 62°52' E 006°49'2 3.8
2017-Sep-21 01:00N 62°51' E 006°47'0 0.0
2017-Sep-21 00:30N 62°51' E 006°47'0 0.3
2017-Sep-21 00:00N 62°51' E 006°47'4 7.7
2017-Sep-20 23:30N 62°48' E 006°40'0 0.9
2017-Sep-20 23:00N 62°48' E 006°40'0 0.0
2017-Sep-20 22:30N 62°48' E 006°40'0 0.0
2017-Sep-20 22:00N 62°48' E 006°40'0 0.0
2017-Sep-20 21:30N 62°48' E 006°40'0 0.0
2017-Sep-20 21:00N 62°48' E 006°40'0 0.0
2017-Sep-20 20:30N 62°48' E 006°40'1 1.1
2017-Sep-20 20:00N 62°47' E 006°41'511.0
2017-Sep-20 19:30N 62°43' E 006°34'612.0
2017-Sep-20 19:00N 62°39' E 006°24'612.0
2017-Sep-20 18:30N 62°35' E 006°14'611.2
2017-Sep-20 18:00N 62°30' E 006°09'611.2
2017-Sep-20 17:30N 62°27' E 005°59'611.3
2017-Sep-20 17:00N 62°24' E 005°49'510.3
2017-Sep-20 16:29N 62°19' E 005°43'2 3.6
2017-Sep-20 16:00N 62°19' E 005°39'0 0.0
2017-Sep-20 15:30N 62°19' E 005°39'2 4.5
2017-Sep-20 15:00N 62°19' E 005°44'9 9.2
2017-Sep-20 14:00N 62°26' E 005°57'510.1
2017-Sep-20 13:30N 62°29' E 006°06'5 9.7
2017-Sep-20 13:00N 62°33' E 006°13'5 9.6
2017-Sep-20 12:30N 62°37' E 006°18'510.2
2017-Sep-20 12:00N 62°40' E 006°27'5 9.9
2017-Sep-20 11:30N 62°43' E 006°35'5 9.3
2017-Sep-20 11:00N 62°45' E 006°44'510.2
2017-Sep-20 10:31N 62°46' E 006°55'1 1.2
2017-Sep-20 10:00N 62°47' E 006°55'0 0.0
2017-Sep-20 09:30N 62°47' E 006°55'0 0.0
2017-Sep-20 09:00N 62°47' E 006°55'0 0.0
2017-Sep-20 08:30N 62°47' E 006°55'0 0.0
2017-Sep-20 08:00N 62°47' E 006°55'0 0.0
2017-Sep-20 07:30N 62°47' E 006°55'0 0.0
2017-Sep-20 07:00N 62°47' E 006°55'0 0.2
2017-Sep-20 06:30N 62°47' E 006°55'0 0.0
2017-Sep-20 06:00N 62°47' E 006°55'0 0.0
2017-Sep-20 05:30N 62°47' E 006°55'0 0.0
2017-Sep-20 05:00N 62°47' E 006°55'0 0.0
2017-Sep-20 04:30N 62°47' E 006°55'0 0.0
2017-Sep-20 04:00N 62°47' E 006°55'2 3.1
2017-Sep-20 03:30N 62°46' E 006°53'510.9
2017-Sep-20 03:00N 62°45' E 006°41'510.8
2017-Sep-20 02:30N 62°42' E 006°31'510.7
2017-Sep-20 02:00N 62°38' E 006°22'510.2
2017-Sep-20 01:30N 62°35' E 006°14'3 6.8
2017-Sep-20 01:00N 62°32' E 006°10'510.1
2017-Sep-20 00:29N 62°28' E 006°03'510.9
2017-Sep-20 00:00N 62°25' E 005°53'510.9
2017-Sep-19 23:30N 62°21' E 005°46'3 6.8
2017-Sep-19 23:00N 62°19' E 005°39'0 0.0
2017-Sep-19 22:30N 62°19' E 005°39'0 0.1
2017-Sep-19 22:00N 62°19' E 005°39'3 6.7
2017-Sep-19 21:29N 62°18' E 005°33'5 9.6
2017-Sep-19 21:00N 62°17' E 005°23'5 9.7
2017-Sep-19 20:30N 62°15' E 005°14'5 9.6
2017-Sep-19 20:00N 62°12' E 005°05'4 8.9
2017-Sep-19 19:30N 62°07' E 005°05'5 9.8
2017-Sep-19 19:00N 62°03' E 005°08'5 9.7
2017-Sep-19 18:30N 61°58' E 005°09'4 8.8
2017-Sep-19 18:00N 61°53' E 005°10'4 8.8
2017-Sep-19 17:30N 61°50' E 005°16'510.3
2017-Sep-19 16:59N 61°47' E 005°06'2 4.1
2017-Sep-19 16:30N 61°45' E 005°04'0 0.0
2017-Sep-19 16:00N 61°45' E 005°04'0 0.0
2017-Sep-19 15:30N 61°45' E 005°04'0 0.0
2017-Sep-19 15:00N 61°45' E 005°04'0 0.0
2017-Sep-19 14:30N 61°45' E 005°04'0 0.0
2017-Sep-19 14:00N 61°45' E 005°04'0 0.0
2017-Sep-19 13:30N 61°45' E 005°04'0 0.3
2017-Sep-19 13:00N 61°46' E 005°05'0 0.3
2017-Sep-19 12:30N 61°46' E 005°05'0 0.3
2017-Sep-19 12:00N 61°46' E 005°05'0 0.6
2017-Sep-19 11:30N 61°45' E 005°04'0 0.0
2017-Sep-19 11:00N 61°45' E 005°04'0 0.0
2017-Sep-19 10:30N 61°45' E 005°04'0 0.0
2017-Sep-19 10:00N 61°45' E 005°04'0 0.0
2017-Sep-19 09:30N 61°45' E 005°04'0 0.0
2017-Sep-19 09:00N 61°45' E 005°04'0 0.0
2017-Sep-19 08:30N 61°45' E 005°04'0 0.0
2017-Sep-19 08:00N 61°45' E 005°04'1 1.1
2017-Sep-19 07:29N 61°46' E 005°05'0 0.3
2017-Sep-19 07:00N 61°46' E 005°05'0 0.2
2017-Sep-19 06:30N 61°46' E 005°05'3 6.9
2017-Sep-19 06:00N 61°49' E 005°09'5 8.9
2017-Sep-19 05:30N 61°52' E 005°15'5 9.7
2017-Sep-19 05:00N 61°55' E 005°07'1 2.4
2017-Sep-19 04:30N 61°56' E 005°07'0 0.0
2017-Sep-19 04:00N 61°56' E 005°07'0 0.0
2017-Sep-19 03:30N 61°56' E 005°07'0 0.0
2017-Sep-19 03:00N 61°56' E 005°07'0 0.0
2017-Sep-19 02:30N 61°56' E 005°07'0 0.0
2017-Sep-19 02:00N 61°56' E 005°07'0 0.0
2017-Sep-19 01:30N 61°56' E 005°07'0 0.0
2017-Sep-19 01:00N 61°56' E 005°07'0 0.0
2017-Sep-19 00:30N 61°56' E 005°07'0 0.0
2017-Sep-19 00:00N 61°56' E 005°07'0 0.0
2017-Sep-18 23:30N 61°56' E 005°07'0 0.0
2017-Sep-18 23:00N 61°56' E 005°07'0 0.0
2017-Sep-18 22:30N 61°56' E 005°07'0 0.0
2017-Sep-18 21:59N 61°56' E 005°07'0 0.0
2017-Sep-18 21:30N 61°56' E 005°07'0 0.0
2017-Sep-18 20:59N 61°56' E 005°07'0 0.0
2017-Sep-18 20:30N 61°56' E 005°07'0 0.0
2017-Sep-18 20:00N 61°56' E 005°07'0 0.0
2017-Sep-18 19:30N 61°56' E 005°07'3 6.4
2017-Sep-18 19:00N 61°59' E 005°09'510.7
2017-Sep-18 18:30N 62°04' E 005°07'611.2
2017-Sep-18 18:00N 62°09' E 005°04'510.3
2017-Sep-18 17:30N 62°14' E 005°11'610.9
2017-Sep-18 16:59N 62°17' E 005°21'510.8
2017-Sep-18 16:30N 62°18' E 005°32'4 7.6
2017-Sep-18 16:00N 62°19' E 005°39'0 0.1
2017-Sep-18 15:30N 62°19' E 005°39'0 0.0
2017-Sep-18 15:00N 62°19' E 005°39'2 4.9
2017-Sep-18 14:30N 62°19' E 005°45'5 9.1
2017-Sep-18 14:00N 62°24' E 005°49'5 9.5
2017-Sep-18 13:30N 62°27' E 005°57'5 9.7
2017-Sep-18 13:00N 62°29' E 006°06'5 9.5
2017-Sep-18 12:30N 62°32' E 006°13'5 9.1
2017-Sep-18 12:00N 62°36' E 006°17'5 9.9
2017-Sep-18 11:29N 62°40' E 006°26'5 9.6
2017-Sep-18 11:00N 62°43' E 006°34'5 9.7
2017-Sep-18 10:30N 62°45' E 006°43'510.2
2017-Sep-18 10:00N 62°46' E 006°54'1 2.2
2017-Sep-18 09:30N 62°47' E 006°55'0 0.0
2017-Sep-18 09:00N 62°47' E 006°55'0 0.0
2017-Sep-18 08:29N 62°47' E 006°55'0 0.0
2017-Sep-18 08:00N 62°47' E 006°55'3 5.8
2017-Sep-18 07:30N 62°46' E 006°50'510.8
2017-Sep-18 07:00N 62°44' E 006°39'511.0
2017-Sep-18 06:30N 62°41' E 006°29'611.2
2017-Sep-18 06:00N 62°37' E 006°20'611.2
2017-Sep-18 05:29N 62°33' E 006°11'510.3
2017-Sep-18 05:00N 62°29' E 006°06'510.8
2017-Sep-18 04:29N 62°26' E 005°56'510.3
2017-Sep-18 04:00N 62°23' E 005°48'5 9.0
2017-Sep-18 03:30N 62°19' E 005°41'0 0.8
2017-Sep-18 03:00N 62°19' E 005°40'0 0.0
2017-Sep-18 02:30N 62°19' E 005°40'0 0.0
2017-Sep-18 02:00N 62°19' E 005°40'0 0.0
2017-Sep-18 01:30N 62°19' E 005°40'0 0.0
2017-Sep-18 01:00N 62°19' E 005°40'0 0.4
2017-Sep-18 00:30N 62°19' E 005°40'0 0.6
2017-Sep-18 00:00N 62°19' E 005°39'0 0.0
2017-Sep-17 23:30N 62°19' E 005°39'0 0.0
2017-Sep-17 23:00N 62°19' E 005°39'3 5.2
2017-Sep-17 22:30N 62°18' E 005°34'5 9.0
2017-Sep-17 22:00N 62°17' E 005°25'4 8.8
2017-Sep-17 21:30N 62°15' E 005°16'4 9.0
2017-Sep-17 21:00N 62°13' E 005°08'4 8.2
2017-Sep-17 20:30N 62°09' E 005°04'5 9.6
2017-Sep-17 20:00N 62°05' E 005°07'5 9.7
2017-Sep-17 19:30N 61°60' E 005°10'5 9.4
2017-Sep-17 19:00N 61°55' E 005°07'4 9.0
2017-Sep-17 18:30N 61°52' E 005°14'3 6.4
2017-Sep-17 18:00N 61°49' E 005°12'5 9.5
2017-Sep-17 17:29N 61°46' E 005°03'5 9.4
2017-Sep-17 17:00N 61°43' E 004°58'510.1
2017-Sep-17 16:30N 61°38' E 004°59'4 8.8
2017-Sep-17 16:00N 61°33' E 005°00'5 9.7
2017-Sep-17 15:30N 61°29' E 004°58'510.1
2017-Sep-17 15:00N 61°25' E 004°51'5 9.8
2017-Sep-17 14:30N 61°20' E 004°50'5 9.8
2017-Sep-17 14:00N 61°16' E 004°55'5 9.7
2017-Sep-17 13:30N 61°12' E 005°01'4 8.7
2017-Sep-17 13:00N 61°09' E 005°08'0 0.0
2017-Sep-17 12:30N 61°09' E 005°08'0 0.0
2017-Sep-17 12:00N 61°09' E 005°08'0 0.0
2017-Sep-17 11:30N 61°09' E 005°08'0 0.0
2017-Sep-17 11:00N 61°09' E 005°08'0 0.0
2017-Sep-17 10:29N 61°09' E 005°08'1 2.0
2017-Sep-17 09:59N 61°08' E 005°07'3 5.6
2017-Sep-17 09:30N 61°06' E 005°05'4 7.4
2017-Sep-17 08:59N 61°03' E 004°59'3 6.5
2017-Sep-17 08:30N 61°02' E 004°54'3 6.6
2017-Sep-17 08:00N 60°60' E 004°48'4 8.0
2017-Sep-17 07:30N 60°56' E 004°46'3 6.1
2017-Sep-17 07:00N 60°54' E 004°50'0 0.3
2017-Sep-17 06:30N 60°54' E 004°50'0 0.3
2017-Sep-17 06:00N 60°54' E 004°50'3 5.6
2017-Sep-17 05:30N 60°55' E 004°46'510.1
2017-Sep-17 05:00N 61°00' E 004°45'5 9.4
2017-Sep-17 04:30N 61°05' E 004°43'5 9.5
2017-Sep-17 03:59N 61°10' E 004°44'5 9.4
2017-Sep-17 03:30N 61°14' E 004°43'5 9.7
2017-Sep-17 03:00N 61°19' E 004°48'5 9.5
2017-Sep-17 02:30N 61°23' E 004°49'510.0
2017-Sep-17 02:00N 61°27' E 004°55'5 9.9
2017-Sep-17 01:30N 61°32' E 005°00'3 5.8
2017-Sep-17 01:00N 61°34' E 005°03'0 0.0
2017-Sep-17 00:30N 61°34' E 005°03'0 0.0
2017-Sep-17 00:00N 61°34' E 005°03'0 0.0
2017-Sep-16 23:30N 61°34' E 005°03'2 4.7
2017-Sep-16 22:59N 61°34' E 004°58'1 1.2
2017-Sep-16 22:30N 61°34' E 004°57'1 1.9
2017-Sep-16 22:00N 61°35' E 004°57'2 4.3
2017-Sep-16 21:30N 61°36' E 005°01'0 1.0
2017-Sep-16 21:00N 61°36' E 005°02'0 0.0
2017-Sep-16 20:30N 61°36' E 005°02'2 3.2
2017-Sep-16 20:00N 61°37' E 004°59'5 9.9
2017-Sep-16 19:30N 61°42' E 004°57'510.0
2017-Sep-16 19:00N 61°46' E 005°02'510.6
2017-Sep-16 18:30N 61°49' E 005°11'3 6.8
2017-Sep-16 18:00N 61°51' E 005°18'0 0.0
2017-Sep-16 17:29N 61°51' E 005°18'0 0.0
2017-Sep-16 17:00N 61°51' E 005°18'1 2.1
2017-Sep-16 16:30N 61°52' E 005°16'510.3
2017-Sep-16 16:00N 61°55' E 005°07'611.3
2017-Sep-16 15:30N 62°00' E 005°09'611.4
2017-Sep-16 15:00N 62°06' E 005°06'511.1
2017-Sep-16 14:30N 62°11' E 005°04'611.1
2017-Sep-16 14:00N 62°15' E 005°13'611.3
2017-Sep-16 13:30N 62°17' E 005°24'611.3
2017-Sep-16 13:00N 62°18' E 005°36'2 3.9
2017-Sep-16 12:30N 62°19' E 005°39'0 0.0
2017-Sep-16 12:00N 62°19' E 005°39'0 0.0
2017-Sep-16 11:30N 62°19' E 005°39'0 0.0
2017-Sep-16 11:00N 62°19' E 005°39'0 0.0
2017-Sep-16 10:30N 62°19' E 005°39'0 0.0
2017-Sep-16 10:00N 62°19' E 005°39'0 0.0
2017-Sep-16 09:30N 62°19' E 005°39'0 0.0
2017-Sep-16 08:59N 62°19' E 005°39'0 0.0
2017-Sep-16 08:30N 62°19' E 005°39'0 0.0
2017-Sep-16 08:00N 62°19' E 005°39'0 0.0
2017-Sep-16 07:29N 62°19' E 005°39'0 0.0
2017-Sep-16 07:00N 62°19' E 005°39'0 0.0
2017-Sep-16 06:30N 62°19' E 005°39'0 0.0
2017-Sep-16 06:00N 62°19' E 005°39'0 0.0
2017-Sep-16 05:30N 62°19' E 005°39'0 0.0
2017-Sep-16 05:00N 62°19' E 005°39'0 0.0
2017-Sep-16 04:30N 62°19' E 005°39'0 0.0
2017-Sep-16 04:00N 62°19' E 005°39'0 0.0
2017-Sep-16 03:30N 62°19' E 005°39'0 0.0
2017-Sep-16 03:00N 62°19' E 005°39'0 0.0
2017-Sep-16 02:30N 62°19' E 005°39'0 0.0
2017-Sep-16 02:00N 62°19' E 005°39'0 0.0
2017-Sep-16 01:30N 62°19' E 005°39'0 0.0
2017-Sep-16 01:00N 62°19' E 005°39'0 0.0
2017-Sep-16 00:30N 62°19' E 005°39'0 0.0
2017-Sep-16 00:00N 62°19' E 005°39'0 0.0
2017-Sep-15 23:30N 62°19' E 005°39'0 0.0
2017-Sep-15 23:00N 62°19' E 005°39'0 0.0
2017-Sep-15 22:30N 62°19' E 005°39'2 3.1
2017-Sep-15 22:00N 62°18' E 005°36'5 9.0
2017-Sep-15 21:30N 62°15' E 005°31'5 9.5
2017-Sep-15 21:00N 62°11' E 005°36'510.1
2017-Sep-15 20:30N 62°12' E 005°47'1 1.0
2017-Sep-15 20:00N 62°13' E 005°47'0 0.0
2017-Sep-15 19:30N 62°13' E 005°47'0 0.0
2017-Sep-15 19:00N 62°13' E 005°47'0 0.0
2017-Sep-15 18:29N 62°13' E 005°47'2 4.4
2017-Sep-15 18:00N 62°13' E 005°52'3 6.7
2017-Sep-15 17:30N 62°15' E 005°57'3 6.9
2017-Sep-15 17:00N 62°18' E 006°02'3 7.0
2017-Sep-15 16:30N 62°21' E 006°07'4 7.8
2017-Sep-15 16:00N 62°24' E 006°04'4 7.3
2017-Sep-15 15:30N 62°28' E 006°04'1 3.0
2017-Sep-15 14:59N 62°28' E 006°08'4 7.9
2017-Sep-15 14:29N 62°31' E 006°14'4 9.0
2017-Sep-15 14:00N 62°31' E 006°23'1 1.6
2017-Sep-15 13:30N 62°32' E 006°24'0 0.0
2017-Sep-15 13:00N 62°32' E 006°24'0 0.0
2017-Sep-15 12:30N 62°32' E 006°24'2 4.5
2017-Sep-15 12:00N 62°31' E 006°20'0 0.2
2017-Sep-15 11:30N 62°31' E 006°20'1 1.0
2017-Sep-15 11:00N 62°31' E 006°21'0 0.8
2017-Sep-15 10:30N 62°31' E 006°22'3 5.3
2017-Sep-15 10:00N 62°31' E 006°16'2 4.6
2017-Sep-15 09:30N 62°31' E 006°11'3 5.2
2017-Sep-15 09:00N 62°29' E 006°07'3 6.7
2017-Sep-15 08:30N 62°27' E 006°01'4 7.3
2017-Sep-15 08:00N 62°26' E 005°53'3 6.2
2017-Sep-15 07:30N 62°25' E 005°47'3 6.9
2017-Sep-15 07:00N 62°22' E 005°45'3 5.9
2017-Sep-15 06:30N 62°19' E 005°42'1 2.7
2017-Sep-15 06:00N 62°19' E 005°39'0 0.0
2017-Sep-15 05:30N 62°19' E 005°39'0 0.0
2017-Sep-15 05:00N 62°19' E 005°39'0 0.0
2017-Sep-15 04:30N 62°19' E 005°39'0 0.0
2017-Sep-15 04:00N 62°19' E 005°39'0 0.0
2017-Sep-15 03:30N 62°19' E 005°39'0 0.0
2017-Sep-15 03:00N 62°19' E 005°39'0 0.0
2017-Sep-15 02:30N 62°19' E 005°39'0 0.0
2017-Sep-15 02:00N 62°19' E 005°39'0 0.0
2017-Sep-15 01:30N 62°19' E 005°39'0 0.0
2017-Sep-15 01:00N 62°19' E 005°39'0 0.0
2017-Sep-15 00:30N 62°19' E 005°39'0 0.0
2017-Sep-15 00:00N 62°19' E 005°39'0 0.0
2017-Sep-14 23:30N 62°19' E 005°39'4 6.9
2017-Sep-14 22:59N 62°18' E 005°33'5 9.8
2017-Sep-14 22:30N 62°13' E 005°32'5 9.1
2017-Sep-14 22:00N 62°11' E 005°41'3 6.5
2017-Sep-14 21:30N 62°13' E 005°47'0 0.0
2017-Sep-14 20:59N 62°13' E 005°47'0 0.0
2017-Sep-14 20:30N 62°13' E 005°47'0 0.0
2017-Sep-14 20:00N 62°13' E 005°47'0 0.0
2017-Sep-14 19:29N 62°13' E 005°47'0 0.0
2017-Sep-14 19:00N 62°13' E 005°47'2 3.6
2017-Sep-14 18:30N 62°12' E 005°44'510.4
2017-Sep-14 17:59N 62°12' E 005°33'510.6
2017-Sep-14 17:29N 62°17' E 005°32'5 9.4
2017-Sep-14 17:00N 62°19' E 005°40'0 0.0
2017-Sep-14 16:30N 62°19' E 005°40'0 0.0
2017-Sep-14 16:00N 62°19' E 005°40'0 0.0
2017-Sep-14 15:30N 62°19' E 005°40'0 0.0
2017-Sep-14 15:00N 62°19' E 005°40'0 0.0
2017-Sep-14 14:30N 62°19' E 005°40'0 1.0
2017-Sep-14 14:00N 62°19' E 005°39'0 0.0
2017-Sep-14 13:30N 62°19' E 005°39'2 3.9
2017-Sep-14 13:00N 62°18' E 005°36'5 9.8
2017-Sep-14 12:30N 62°17' E 005°25'5 9.8
2017-Sep-14 12:00N 62°15' E 005°16'5 9.4
2017-Sep-14 11:30N 62°13' E 005°08'4 8.0
2017-Sep-14 11:00N 62°09' E 005°04'5 9.5
2017-Sep-14 10:30N 62°04' E 005°07'5 9.8
2017-Sep-14 10:00N 61°60' E 005°10'5 9.3
2017-Sep-14 09:30N 61°55' E 005°07'5 9.1
2017-Sep-14 09:00N 61°52' E 005°14'4 7.1
2017-Sep-14 08:30N 61°49' E 005°10'510.3
2017-Sep-14 08:00N 61°46' E 005°02'5 9.5
2017-Sep-14 07:30N 61°42' E 004°58'  

Dump ship's entire track history